Terminal Aerodrome Forecast
Issued by NWS

Home | Current Version | Previous Version | Text Only | Print | Product List | Glossary On
Versions: 1 2 3 4 5 6 7 8 9 10 11 12 13 14
474
FTUS45 KPSR 232320
TAFBLH
TAF
KBLH 232320Z 2400/2424 19011KT P6SM SCT100
     FM240400 24007KT P6SM FEW120
     FM241000 VRB04KT P6SM SKC
     FM241600 17011KT P6SM FEW100=

USA.gov is the U.S. government's official web portal to all federal, state and local government web resources and services.